createdAt,value
2022-08-11T00:02:15.296Z,101250.00
2022-08-11T00:07:14.409Z,101250.00
2022-08-11T00:12:14.585Z,101246.00
2022-08-11T00:17:14.491Z,101240.00
2022-08-11T00:22:14.420Z,101242.00
2022-08-11T00:27:14.475Z,101240.00
2022-08-11T00:32:14.494Z,101244.00
2022-08-11T00:37:14.532Z,101240.00
2022-08-11T00:42:14.501Z,101237.00
2022-08-11T00:47:14.515Z,101235.00
2022-08-11T00:52:14.426Z,101235.00
2022-08-11T00:57:36.336Z,101237.00
2022-08-11T01:02:16.448Z,101238.00
2022-08-11T01:07:16.474Z,101240.00
2022-08-11T01:12:18.443Z,101237.00
2022-08-11T01:17:18.486Z,101235.00
2022-08-11T01:22:18.532Z,101235.00
2022-08-11T01:27:20.014Z,101237.00
2022-08-11T01:32:20.650Z,101237.00
2022-08-11T01:37:20.472Z,101235.00
2022-08-11T01:42:49.178Z,101237.00
2022-08-11T01:47:53.578Z,101235.00
2022-08-11T01:52:53.875Z,101231.00
2022-08-11T01:57:53.510Z,101227.00
2022-08-11T02:02:53.807Z,101229.00
2022-08-11T02:07:53.579Z,101227.00
2022-08-11T02:12:55.581Z,101227.00
2022-08-11T02:17:56.480Z,101225.00
2022-08-11T02:23:58.739Z,101229.00
2022-08-11T02:28:16.475Z,101221.00
2022-08-11T02:33:27.489Z,101219.00
2022-08-11T02:38:27.587Z,101217.00
2022-08-11T02:43:27.571Z,101217.00
2022-08-11T02:48:45.815Z,101223.00
2022-08-11T02:53:48.877Z,101221.00
2022-08-11T02:58:49.631Z,101225.00
2022-08-11T03:03:50.755Z,101229.00
2022-08-11T03:08:51.994Z,101231.00
2022-08-11T03:14:09.842Z,101233.00
2022-08-11T03:19:09.531Z,101233.00
2022-08-11T03:24:09.589Z,101229.00
2022-08-11T03:29:09.616Z,101231.00
2022-08-11T03:34:10.853Z,101227.00
2022-08-11T03:39:10.667Z,101229.00
2022-08-11T03:44:10.719Z,101229.00
2022-08-11T03:49:10.682Z,101225.00
2022-08-11T03:54:10.617Z,101227.00
2022-08-11T03:59:10.637Z,101229.00
2022-08-11T04:04:10.565Z,101229.00
2022-08-11T04:09:10.667Z,101229.00
2022-08-11T04:14:44.412Z,101229.00
2022-08-11T04:19:44.722Z,101233.00
2022-08-11T04:24:49.744Z,101233.00
2022-08-11T04:30:03.913Z,101238.00
2022-08-11T04:34:48.692Z,101240.00
2022-08-11T04:39:49.402Z,101240.00
2022-08-11T04:44:49.702Z,101237.00
2022-08-11T04:50:07.578Z,101238.00
2022-08-11T04:55:25.953Z,101244.00
2022-08-11T05:00:43.878Z,101240.00
2022-08-11T05:05:54.725Z,101240.00
2022-08-11T05:10:45.660Z,101242.00
2022-08-11T05:16:04.145Z,101242.00
2022-08-11T05:21:21.999Z,101248.00
2022-08-11T05:26:47.502Z,101260.00
2022-08-11T05:32:00.067Z,101266.00
2022-08-11T05:37:23.853Z,101272.00
2022-08-11T05:42:20.860Z,101276.00
2022-08-11T05:47:39.991Z,101272.00
2022-08-11T05:52:58.110Z,101274.00
2022-08-11T05:57:59.714Z,101272.00
2022-08-11T06:03:00.737Z,101276.00
2022-08-11T06:08:00.783Z,101278.00
2022-08-11T06:13:01.077Z,101282.00
2022-08-11T06:18:02.362Z,101285.00
2022-08-11T06:23:03.540Z,101285.00
2022-08-11T06:28:03.745Z,101291.00
2022-08-11T06:33:03.800Z,101291.00
2022-08-11T06:38:03.787Z,101289.00
2022-08-11T06:43:03.731Z,101287.00
2022-08-11T06:48:05.639Z,101278.00
2022-08-11T06:53:05.732Z,101278.00
2022-08-11T06:58:24.002Z,101272.00
2022-08-11T07:03:23.695Z,101268.00
2022-08-11T07:08:42.106Z,101264.00
2022-08-11T07:14:00.239Z,101260.00
2022-08-11T07:19:17.974Z,101260.00
2022-08-11T07:25:01.635Z,101256.00
2022-08-11T07:29:38.907Z,101248.00
2022-08-11T07:34:38.800Z,101242.00
2022-08-11T07:39:38.802Z,101237.00
2022-08-11T07:44:59.273Z,101235.00
2022-08-11T07:50:16.956Z,101231.00
2022-08-11T07:55:16.873Z,101223.00
2022-08-11T08:00:34.900Z,101217.00
2022-08-11T08:05:53.088Z,101215.00
2022-08-11T08:11:11.043Z,101213.00
2022-08-11T08:16:29.328Z,101207.00
2022-08-11T08:21:28.801Z,101207.00
2022-08-11T08:26:48.347Z,101203.00
2022-08-11T08:31:48.780Z,101207.00
2022-08-11T08:36:48.859Z,101207.00
2022-08-11T08:41:49.684Z,101203.00
2022-08-11T08:46:49.830Z,101199.00
2022-08-11T08:52:01.216Z,101195.00
2022-08-11T08:56:51.863Z,101195.00
2022-08-11T09:01:52.013Z,101197.00
2022-08-11T09:06:52.501Z,101199.00
2022-08-11T09:11:55.864Z,101195.00
2022-08-11T09:16:55.908Z,101193.00
2022-08-11T09:22:15.370Z,101193.00
2022-08-11T09:27:14.927Z,101190.00
2022-08-11T09:32:14.867Z,101182.00
2022-08-11T09:37:54.318Z,101178.00
2022-08-11T09:42:53.188Z,101176.00
2022-08-11T09:47:52.961Z,101176.00
2022-08-11T09:53:34.675Z,101168.00
2022-08-11T09:58:42.761Z,101164.00
2022-08-11T10:03:18.868Z,101158.00
2022-08-11T10:08:18.936Z,101156.00
2022-08-11T10:14:32.181Z,101154.00
2022-08-11T10:18:39.201Z,101154.00
2022-08-11T10:24:13.703Z,101148.00
2022-08-11T10:29:36.732Z,101137.00
2022-08-11T10:34:33.944Z,101135.00
2022-08-11T10:39:33.982Z,101133.00
2022-08-11T10:44:33.998Z,101129.00
2022-08-11T10:49:33.935Z,101127.00
2022-08-11T10:54:52.259Z,101125.00
2022-08-11T10:59:53.802Z,101123.00
2022-08-11T11:04:54.004Z,101117.00
2022-08-11T11:09:53.921Z,101115.00
2022-08-11T11:15:16.144Z,101113.00
2022-08-11T11:20:34.489Z,101107.00
2022-08-11T11:25:17.345Z,101096.00
2022-08-11T11:30:17.251Z,101094.00
2022-08-11T11:35:16.947Z,101090.00
2022-08-11T11:40:17.005Z,101088.00
2022-08-11T11:45:23.429Z,101084.00
2022-08-11T11:50:19.717Z,101080.00
2022-08-11T11:55:20.023Z,101078.00
2022-08-11T12:00:41.663Z,101076.00
2022-08-11T12:05:40.425Z,101070.00
2022-08-11T12:10:40.047Z,101064.00
2022-08-11T12:16:23.769Z,101064.00
2022-08-11T12:20:42.067Z,101064.00
2022-08-11T12:26:25.411Z,101050.00
2022-08-11T12:31:02.094Z,101044.00
2022-08-11T12:36:02.078Z,101040.00
2022-08-11T12:41:20.325Z,101034.00
2022-08-11T12:46:19.995Z,101022.00
2022-08-11T12:52:11.213Z,101020.00
2022-08-11T12:56:58.462Z,101012.00
2022-08-11T13:02:16.006Z,101005.00
2022-08-11T13:07:16.115Z,101005.00
2022-08-11T13:12:34.385Z,100999.00
2022-08-11T13:17:43.656Z,100991.00
2022-08-11T13:22:36.043Z,100989.00
2022-08-11T13:27:36.072Z,100989.00
2022-08-11T13:32:36.136Z,100985.00
2022-08-11T13:38:19.229Z,100979.00
2022-08-11T13:42:38.170Z,100975.00
2022-08-11T13:47:39.539Z,100979.00
2022-08-11T13:52:40.179Z,100973.00
2022-08-11T13:58:08.205Z,100967.00
2022-08-11T14:02:42.266Z,100965.00
2022-08-11T14:07:42.194Z,100964.00
2022-08-11T14:13:00.471Z,100960.00
2022-08-11T14:18:02.727Z,100954.00
2022-08-11T14:23:03.101Z,100950.00
2022-08-11T14:28:41.999Z,100942.00
2022-08-11T14:33:17.194Z,100936.00
2022-08-11T14:38:09.968Z,100934.00
2022-08-11T14:44:12.748Z,100934.00
2022-08-11T14:48:30.211Z,100930.00
2022-08-11T14:53:30.150Z,100926.00
2022-08-11T14:58:33.337Z,100926.00
2022-08-11T15:03:33.638Z,100926.00
2022-08-11T15:08:51.395Z,100918.00
2022-08-11T15:13:51.319Z,100909.00
2022-08-11T15:18:51.223Z,100897.00
2022-08-11T15:24:09.533Z,100901.00
2022-08-11T15:29:27.525Z,100897.00
2022-08-11T15:34:45.483Z,100889.00
2022-08-11T15:39:47.864Z,100883.00
2022-08-11T15:45:06.698Z,100881.00
2022-08-11T15:50:12.617Z,100879.00
2022-08-11T15:55:08.792Z,100879.00
2022-08-11T16:00:27.509Z,100873.00
2022-08-11T16:05:46.413Z,100873.00
2022-08-11T16:10:29.434Z,100871.00
2022-08-11T16:15:49.455Z,100863.00
2022-08-11T16:20:49.286Z,100862.00
2022-08-11T16:27:05.617Z,100856.00
2022-08-11T16:30:51.256Z,100856.00
2022-08-11T16:36:09.547Z,100854.00
2022-08-11T16:41:11.712Z,100854.00
2022-08-11T16:46:30.554Z,100854.00
2022-08-11T16:51:30.290Z,100848.00
2022-08-11T16:56:30.312Z,100850.00
2022-08-11T17:01:30.216Z,100850.00
2022-08-11T17:06:48.622Z,100850.00
2022-08-11T17:12:06.610Z,100852.00
2022-08-11T17:17:06.257Z,100850.00
2022-08-11T17:22:24.503Z,100850.00
2022-08-11T17:27:24.287Z,100848.00
2022-08-11T17:32:56.686Z,100844.00
2022-08-11T17:37:44.325Z,100842.00
2022-08-11T17:43:02.676Z,100838.00
2022-08-11T17:48:20.739Z,100846.00
2022-08-11T17:53:38.301Z,100848.00
2022-08-11T17:58:56.580Z,100850.00
2022-08-11T18:03:58.544Z,100854.00
2022-08-11T18:09:16.810Z,100854.00
2022-08-11T18:14:34.566Z,100858.00
2022-08-11T18:19:52.720Z,100860.00
2022-08-11T18:25:10.727Z,100863.00
2022-08-11T18:30:28.644Z,100865.00
2022-08-11T18:35:46.863Z,100869.00
2022-08-11T18:41:04.820Z,100871.00
2022-08-11T18:46:22.774Z,100871.00
2022-08-11T18:51:40.768Z,100877.00
2022-08-11T18:56:58.610Z,100875.00
2022-08-11T19:02:16.723Z,100875.00
2022-08-11T19:07:34.736Z,100881.00
2022-08-11T19:12:52.724Z,100887.00
2022-08-11T19:18:10.689Z,100895.00
2022-08-11T19:23:28.752Z,100907.00
2022-08-11T19:28:46.698Z,100913.00
2022-08-11T19:34:10.705Z,100913.00
2022-08-11T19:39:24.759Z,100920.00
2022-08-11T19:44:42.773Z,100920.00
2022-08-11T19:50:00.637Z,100922.00
2022-08-11T19:55:18.973Z,100928.00
2022-08-11T20:00:36.849Z,100928.00
2022-08-11T20:05:59.433Z,100930.00
2022-08-11T20:11:14.782Z,100928.00
2022-08-11T20:16:32.740Z,100930.00
2022-08-11T20:21:50.382Z,100928.00
2022-08-11T20:27:18.554Z,100928.00
2022-08-11T20:32:28.948Z,100930.00
2022-08-11T20:37:50.968Z,100932.00
2022-08-11T20:43:06.859Z,100930.00
2022-08-11T20:48:26.865Z,100932.00
2022-08-11T20:53:44.932Z,100936.00
2022-08-11T20:59:21.863Z,100938.00
2022-08-11T21:04:22.904Z,100940.00
2022-08-11T21:09:58.598Z,100940.00
2022-08-11T21:15:04.900Z,100942.00
2022-08-11T21:20:22.941Z,100942.00
2022-08-11T21:25:40.974Z,100944.00
2022-08-11T21:30:58.993Z,100944.00
2022-08-11T21:36:16.822Z,100944.00
2022-08-11T21:41:34.903Z,100944.00
2022-08-11T21:46:52.665Z,100940.00
2022-08-11T21:52:10.689Z,100942.00
2022-08-11T21:57:28.790Z,100944.00
2022-08-11T22:02:50.936Z,100942.00
2022-08-11T22:08:08.816Z,100946.00
2022-08-11T22:13:26.807Z,100946.00
2022-08-11T22:18:44.830Z,100950.00
2022-08-11T22:24:02.804Z,100948.00
2022-08-11T22:29:20.961Z,100944.00
2022-08-11T22:34:51.797Z,100942.00
2022-08-11T22:40:03.051Z,100942.00
2022-08-11T22:45:20.570Z,100940.00
2022-08-11T22:50:38.894Z,100940.00
2022-08-11T22:55:56.919Z,100940.00
2022-08-11T23:01:15.201Z,100938.00
2022-08-11T23:06:33.843Z,100940.00
2022-08-11T23:12:07.017Z,100938.00
2022-08-11T23:17:12.002Z,100942.00
2022-08-11T23:22:39.514Z,100944.00
2022-08-11T23:27:49.921Z,100942.00
2022-08-11T23:33:07.898Z,100940.00
2022-08-11T23:38:26.001Z,100938.00
2022-08-11T23:43:43.695Z,100940.00
2022-08-11T23:49:02.035Z,100936.00
2022-08-11T23:54:19.938Z,100934.00
2022-08-11T23:59:37.976Z,100932.00
